Station: Macquarie Island  

  Atmospheric Gas Attenuation - ITU Rec 676-11   ----------------- dB/100km -----------------
Date Time Temp RH % AH g/m3 Dew Point Wind Direction Speed kph Gust kph Barometer mB Rainfall Since 9am 24GHz 47GHz 76GHz 122GHz 134GHz 241GHz
03/09 03:40 5.4 94 6.56 4.5 39 44 976 4.2 15.6 23.5 33.9 89.1 78.1 266.7
03/09 03:30 5.4 94 6.56 4.5 39 46 976 4.2 15.6 23.5 33.9 89.1 78.1 266.7
03/09 03:20 5.4 94 6.56 4.5 41 46 975.8 4.2 15.6 23.5 33.8 89.1 78.1 266.6
03/09 03:10 5.5 94 6.61 4.6 43 54 975.7 4.2 15.7 23.6 34.0 89.5 78.6 268.6
03/09 03:00 5.7 94 6.69 4.8 50 57 975.5 4.2 15.8 23.6 34.2 90.1 79.5 271.6
03/09 02:50 5.6 94 6.65 4.7 50 56 975.4 4.2 15.8 23.6 34.1 89.8 79.0 270.0
03/09 02:40 5.7 95 6.76 5 50 56 975.6 4.2 16.0 23.8 34.5 90.9 80.4 274.9
03/09 02:30 5.8 95 6.81 5.1 52 59 975.4 4.2 16.1 23.8 34.7 91.3 81.0 276.8
03/09 02:20 5.7 96 6.84 5.1 54 63 975.4 4.2 16.2 23.9 34.8 91.7 81.5 278.6
03/09 02:10 5.7 96 6.84 5.1 50 59 975.4 4 16.2 23.9 34.8 91.7 81.5 278.6
03/09 02:00 5.8 96 6.88 5.2 48 56 975.4 3.6 16.3 23.9 35.0 92.0 81.9 280.1
03/09 01:50 5.7 96 6.84 5.1 48 56 975.5 3.6 16.2 23.9 34.8 91.7 81.5 278.6
03/09 01:40 5.7 96 6.84 5.1 48 54 975.6 3.6 16.2 23.9 34.8 91.7 81.5 278.7
03/09 01:30 5.7 96 6.84 5.1 46 56 975.7 3.6 16.2 23.9 34.8 91.7 81.5 278.7
03/09 01:20 5.7 96 6.84 5.1 44 50 975.9 3.6 16.2 23.9 34.9 91.8 81.5 278.7
03/09 01:10 5.7 96 6.84 5.1 46 52 975.9 3.6 16.2 23.9 34.9 91.8 81.5 278.7
03/09 01:00 5.6 96 6.79 5 46 52 976 3.6 16.1 23.8 34.7 91.3 80.9 276.8
03/09 00:50 5.6 96 6.79 5 44 52 976.1 3.6 16.1 23.8 34.7 91.3 80.9 276.8
03/09 00:40 5.5 96 6.75 4.9 41 50 976.1 3.6 16.0 23.8 34.6 91.0 80.5 275.3
03/09 00:30 5.5 96 6.75 4.9 41 56 976.3 3.6 16.0 23.8 34.6 91.0 80.5 275.3
03/09 00:20 5.7 95 6.76 5 44 50 976.2 3 16.0 23.8 34.5 90.9 80.4 275.0
03/09 00:10 5.6 95 6.72 4.9 43 50 976.3 2.4 15.9 23.7 34.4 90.6 80.0 273.5
03/09 00:00 5.6 95 6.72 4.9 43 48 976.3 2.4 15.9 23.7 34.4 90.6 80.0 273.5
02/09 23:50 5.6 95 6.72 4.9 46 50 976.3 2.4 15.9 23.7 34.4 90.6 80.0 273.5
02/09 23:40 5.5 95 6.68 4.8 46 52 976.4 2.4 15.8 23.7 34.3 90.3 79.6 272.0
02/09 23:30 5.6 95 6.72 4.9 46 56 976.5 2.4 15.9 23.7 34.4 90.6 80.0 273.6
02/09 23:20 5.6 95 6.72 4.9 46 54 976.6 2.4 15.9 23.8 34.4 90.6 80.0 273.6
02/09 23:10 5.5 95 6.68 4.8 48 56 976.6 2.4 15.8 23.7 34.3 90.3 79.6 272.1
02/09 23:00 5.6 95 6.72 4.9 48 57 976.6 2.4 15.9 23.8 34.4 90.6 80.0 273.6
02/09 22:50 5.6 95 6.72 4.9 50 57 976.5 2.4 15.9 23.7 34.4 90.6 80.0 273.6
02/09 22:40 5.6 94 6.65 4.7 50 59 976.5 2.4 15.8 23.6 34.2 89.9 79.1 270.3
02/09 22:30 5.6 94 6.65 4.7 50 57 976.5 2.4 15.8 23.6 34.2 89.9 79.1 270.3
02/09 22:20 5.6 94 6.65 4.7 50 57 976.6 2.4 15.8 23.6 34.2 89.9 79.1 270.3
02/09 22:10 5.7 94 6.69 4.8 50 59 976.8 2.4 15.8 23.7 34.3 90.2 79.6 271.9
02/09 22:00 5.6 95 6.72 4.9 48 57 976.9 2.4 15.9 23.8 34.5 90.7 80.1 273.7
02/09 21:50 5.5 94 6.61 4.6 50 59 976.9 2.4 15.7 23.6 34.1 89.6 78.7 268.9
02/09 21:40 5.6 93 6.58 4.6 52 57 976.9 2.4 15.6 23.5 33.9 89.1 78.2 267.1
02/09 21:30 5.5 93 6.54 4.5 50 57 977 2.4 15.5 23.5 33.8 88.8 77.8 265.6
02/09 21:20 5.4 93 6.49 4.4 50 59 977.1 2.4 15.4 23.5 33.6 88.4 77.2 263.7
02/09 21:10 5.4 94 6.56 4.5 48 56 977.2 2.4 15.6 23.6 33.9 89.2 78.2 267.0
02/09 21:00 5.3 94 6.52 4.4 43 50 977.3 2.4 15.5 23.5 33.8 88.9 77.7 265.4
02/09 20:50 5.2 94 6.48 4.3 43 50 977.4 2.4 15.4 23.5 33.7 88.6 77.3 263.9
02/09 20:40 5.1 94 6.43 4.2 43 48 977.5 2.4 15.3 23.4 33.5 88.2 76.7 262.0
02/09 20:30 5.2 93 6.41 4.2 43 48 977.6 2.4 15.3 23.4 33.4 87.8 76.4 260.7
02/09 20:20 5.1 92 6.3 3.9 39 44 977.7 2.4 15.0 23.2 33.0 86.8 75.0 256.0
02/09 20:10 5.1 92 6.3 3.9 37 43 977.8 2.4 15.0 23.2 33.0 86.8 75.0 256.0
02/09 20:00 5.1 92 6.3 3.9 37 41 977.8 2.4 15.0 23.2 33.0 86.8 75.0 256.0
02/09 19:50 5 92 6.26 3.8 35 39 977.8 2.4 14.9 23.2 32.9 86.5 74.6 254.4
02/09 19:40 5 93 6.32 4 35 39 977.9 2.4 15.1 23.3 33.1 87.1 75.4 257.3
02/09 19:30 4.9 93 6.28 3.9 33 37 977.8 2.4 15.0 23.3 33.0 86.8 75.0 255.7
02/09 19:20 4.8 93 6.24 3.8 32 37 977.8 2.4 14.9 23.2 32.9 86.5 74.5 254.2
02/09 19:10 4.9 92 6.21 3.7 30 35 977.8 2.4 14.8 23.2 32.7 86.0 74.0 252.4
02/09 19:00 4.9 92 6.21 3.7 30 35 977.9 2.4 14.8 23.2 32.7 86.1 74.0 252.5
02/09 18:50 5 93 6.32 4 32 39 977.9 2.4 15.1 23.3 33.1 87.1 75.4 257.3
02/09 18:40 4.9 93 6.28 3.9 32 39 977.9 2.4 15.0 23.3 33.0 86.8 75.0 255.7
02/09 18:30 4.9 92 6.21 3.7 32 39 977.9 2.4 14.8 23.2 32.7 86.1 74.0 252.5
02/09 18:20 5 93 6.32 4 30 35 977.9 2.4 15.1 23.3 33.1 87.1 75.4 257.3
02/09 18:10 5 93 6.32 4 30 39 977.9 2.4 15.1 23.3 33.1 87.1 75.4 257.3
02/09 18:00 5 93 6.32 4 28 35 977.8 2.4 15.1 23.3 33.1 87.1 75.4 257.2
02/09 17:50 5 94 6.39 4.1 30 35 977.8 2.4 15.2 23.4 33.4 87.9 76.3 260.5
02/09 17:40 4.9 94 6.35 4 35 41 977.8 2.4 15.1 23.4 33.3 87.6 75.9 259.0
02/09 17:30 5 94 6.39 4.1 35 41 977.7 2.4 15.2 23.4 33.4 87.9 76.3 260.5
02/09 17:20 5.1 94 6.43 4.2 37 43 977.5 2.4 15.3 23.4 33.5 88.2 76.7 262.0
02/09 17:10 5.1 94 6.43 4.2 37 43 977.4 2.4 15.3 23.4 33.5 88.1 76.7 261.9
02/09 17:00 5.2 94 6.48 4.3 39 44 977.3 2.4 15.4 23.5 33.7 88.6 77.3 263.9
02/09 16:50 5.2 94 6.48 4.3 39 44 977.2 2.4 15.4 23.5 33.7 88.6 77.3 263.9
02/09 16:40 5.2 94 6.48 4.3 39 44 977.1 2.4 15.4 23.5 33.7 88.5 77.3 263.9
02/09 16:30 5.2 94 6.48 4.3 41 46 977.1 2.4 15.4 23.5 33.7 88.5 77.3 263.9
02/09 16:20 5.1 94 6.43 4.2 39 44 977 2.4 15.3 23.4 33.5 88.1 76.7 261.9
02/09 16:07 5.2 94 6.48 4.3 37 41 977.1 2.4 15.4 23.5 33.7 88.5 77.3 263.9
02/09 16:00 5.2 94 6.48 4.3 37 43 977 2.4 15.4 23.5 33.7 88.5 77.3 263.8
02/09 15:50 5.3 94 6.52 4.4 39 46 977 2.4 15.5 23.5 33.8 88.9 77.7 265.4
02/09 15:40 5.2 95 6.55 4.5 41 46 976.8 2.4 15.6 23.6 33.9 89.3 78.2 267.1
02/09 15:30 5.2 95 6.55 4.5 43 48 976.7 2.4 15.6 23.6 33.9 89.3 78.2 267.1
02/09 15:20 5.2 95 6.55 4.5 46 54 976.8 2.4 15.6 23.6 33.9 89.3 78.2 267.1
02/09 15:10 5.1 95 6.5 4.4 50 61 976.8 2.4 15.5 23.5 33.8 88.8 77.6 265.1
02/09 15:00 5 95 6.46 4.3 50 59 976.9 2.4 15.4 23.5 33.7 88.5 77.2 263.6
02/09 14:50 4.9 95 6.42 4.2 46 57 977 2.2 15.3 23.5 33.5 88.2 76.8 262.1
02/09 14:40 4.7 95 6.33 4 41 48 977.2 2.2 15.1 23.4 33.3 87.5 75.8 258.6
02/09 14:30 4.8 95 6.38 4.1 37 41 977.5 2 15.2 23.4 33.4 88.0 76.4 260.6
02/09 14:20 4.8 94 6.31 3.9 37 44 977.7 1.8 15.1 23.3 33.2 87.2 75.5 257.4
02/09 14:07 4.8 93 6.24 3.8 37 41 978.1 1.4 14.9 23.2 32.9 86.5 74.6 254.2
02/09 14:00 4.8 92 6.17 3.6 43 56 978.2 1.2 14.7 23.1 32.6 85.8 73.6 251.0
02/09 13:50 4.9 92 6.21 3.7 50 56 978.2 0.8 14.8 23.2 32.7 86.1 74.1 252.5
02/09 13:40 5 91 6.19 3.7 39 48 978.5 0.6 14.8 23.1 32.6 85.8 73.7 251.4
02/09 13:30 4.9 91 6.15 3.6 43 50 978.8 0.6 14.7 23.1 32.5 85.5 73.3 249.9
02/09 13:20 5 91 6.19 3.7 43 48 979 0.4 14.8 23.1 32.7 85.8 73.8 251.5
02/09 13:06 5.1 90 6.16 3.6 46 54 979.1 0.2 14.7 23.1 32.5 85.4 73.3 249.8
02/09 13:00 5.2 90 6.2 3.7 46 54 979.2 0.2 14.8 23.1 32.6 85.7 73.7 251.3
02/09 12:50 5.1 90 6.16 3.6 41 48 979.4 0 14.7 23.1 32.5 85.4 73.3 249.8
02/09 12:40 5.2 89 6.13 3.5 43 48 979.5 0 14.6 23.0 32.4 85.0 72.8 248.2
02/09 12:30 5.3 89 6.17 3.6 41 46 979.6 0 14.7 23.1 32.5 85.3 73.2 249.7
02/09 12:20 5.3 89 6.17 3.6 39 44 979.8 0 14.7 23.1 32.5 85.4 73.3 249.8
02/09 12:10 5.4 89 6.21 3.7 37 43 980 0 14.8 23.1 32.6 85.7 73.7 251.3
02/09 12:00 5.3 89 6.17 3.6 33 39 980.1 0 14.7 23.1 32.5 85.4 73.3 249.8
02/09 11:50 5.2 89 6.13 3.5 39 43 980.3 0 14.6 23.0 32.4 85.1 72.9 248.3
02/09 11:40 5.3 88 6.1 3.5 39 44 980.5 0 14.6 23.0 32.2 84.7 72.4 246.7
02/09 11:30 5.6 87 6.15 3.6 37 44 980.6 0 14.7 23.0 32.3 84.9 72.8 248.1
02/09 11:20 5.7 87 6.2 3.7 35 43 980.8 0 14.8 23.0 32.5 85.3 73.3 250.1
02/09 11:10 5.5 87 6.11 3.5 37 41 980.9 0 14.6 23.0 32.2 84.6 72.4 246.6

Last Refresh: 03-Sep-2026 03:18:58

Bureau of Meteorology